sensor_id;sensor_type;location;lat;lon;timestamp;temperature;humidity
71649;SHT31;70112;45.624;11.760;2024-01-16T00:00:29;2.13;71.83
71649;SHT31;70112;45.624;11.760;2024-01-16T00:03:20;2.11;71.93
71649;SHT31;70112;45.624;11.760;2024-01-16T00:06:00;2.13;72.01
71649;SHT31;70112;45.624;11.760;2024-01-16T00:21:58;2.38;71.75
71649;SHT31;70112;45.624;11.760;2024-01-16T00:24:50;2.43;71.68
71649;SHT31;70112;45.624;11.760;2024-01-16T00:28:30;2.37;71.65
71649;SHT31;70112;45.624;11.760;2024-01-16T00:31:37;2.30;71.72
71649;SHT31;70112;45.624;11.760;2024-01-16T00:35:07;2.32;71.77
71649;SHT31;70112;45.624;11.760;2024-01-16T00:37:52;2.32;71.72
71649;SHT31;70112;45.624;11.760;2024-01-16T00:41:01;2.32;71.70
71649;SHT31;70112;45.624;11.760;2024-01-16T00:47:15;2.29;71.84
71649;SHT31;70112;45.624;11.760;2024-01-16T00:59:25;2.37;71.79
71649;SHT31;70112;45.624;11.760;2024-01-16T01:02:29;2.41;71.70
71649;SHT31;70112;45.624;11.760;2024-01-16T01:12:04;2.45;71.70
71649;SHT31;70112;45.624;11.760;2024-01-16T01:15:14;2.39;71.63
71649;SHT31;70112;45.624;11.760;2024-01-16T01:21:32;2.39;71.79
71649;SHT31;70112;45.624;11.760;2024-01-16T01:31:41;2.35;71.77
71649;SHT31;70112;45.624;11.760;2024-01-16T01:34:16;2.34;71.86
71649;SHT31;70112;45.624;11.760;2024-01-16T01:36:47;2.32;71.71
71649;SHT31;70112;45.624;11.760;2024-01-16T01:39:26;2.19;71.48
71649;SHT31;70112;45.624;11.760;2024-01-16T01:41:59;2.09;71.60
71649;SHT31;70112;45.624;11.760;2024-01-16T01:44:54;2.10;71.71
71649;SHT31;70112;45.624;11.760;2024-01-16T01:47:28;2.11;71.71
71649;SHT31;70112;45.624;11.760;2024-01-16T01:50:52;2.08;71.72
71649;SHT31;70112;45.624;11.760;2024-01-16T01:54:01;2.13;71.80
71649;SHT31;70112;45.624;11.760;2024-01-16T02:02:53;2.23;71.51
71649;SHT31;70112;45.624;11.760;2024-01-16T02:05:32;2.24;71.45
71649;SHT31;70112;45.624;11.760;2024-01-16T02:08:29;2.26;71.49
71649;SHT31;70112;45.624;11.760;2024-01-16T02:11:24;2.28;71.41
71649;SHT31;70112;45.624;11.760;2024-01-16T02:14:19;2.25;71.45
71649;SHT31;70112;45.624;11.760;2024-01-16T02:16:53;2.28;71.44
71649;SHT31;70112;45.624;11.760;2024-01-16T02:20:08;2.22;71.27
71649;SHT31;70112;45.624;11.760;2024-01-16T02:22:42;2.10;71.11
71649;SHT31;70112;45.624;11.760;2024-01-16T02:25:44;2.03;71.17
71649;SHT31;70112;45.624;11.760;2024-01-16T02:32:14;1.83;71.35
71649;SHT31;70112;45.624;11.760;2024-01-16T02:35:18;1.78;71.40
71649;SHT31;70112;45.624;11.760;2024-01-16T02:38:02;1.83;71.48
71649;SHT31;70112;45.624;11.760;2024-01-16T02:40:58;1.89;71.48
71649;SHT31;70112;45.624;11.760;2024-01-16T02:44:16;1.92;71.40
71649;SHT31;70112;45.624;11.760;2024-01-16T02:46:55;1.93;71.25
71649;SHT31;70112;45.624;11.760;2024-01-16T02:49:53;1.91;71.35
71649;SHT31;70112;45.624;11.760;2024-01-16T02:52:49;1.89;71.38
71649;SHT31;70112;45.624;11.760;2024-01-16T02:56:01;1.92;71.39
71649;SHT31;70112;45.624;11.760;2024-01-16T02:59:27;1.89;71.26
71649;SHT31;70112;45.624;11.760;2024-01-16T03:02:35;1.88;71.42
71649;SHT31;70112;45.624;11.760;2024-01-16T03:05:15;1.89;71.43
71649;SHT31;70112;45.624;11.760;2024-01-16T03:08:03;1.81;71.19
71649;SHT31;70112;45.624;11.760;2024-01-16T03:11:22;1.65;71.31
71649;SHT31;70112;45.624;11.760;2024-01-16T03:14:07;1.60;71.53
71649;SHT31;70112;45.624;11.760;2024-01-16T03:17:13;1.59;71.61
71649;SHT31;70112;45.624;11.760;2024-01-16T03:23:30;1.50;71.87
71649;SHT31;70112;45.624;11.760;2024-01-16T03:27:04;1.49;72.05
71649;SHT31;70112;45.624;11.760;2024-01-16T03:30:16;1.47;72.11
71649;SHT31;70112;45.624;11.760;2024-01-16T03:36:28;1.55;72.29
71649;SHT31;70112;45.624;11.760;2024-01-16T03:39:18;1.58;72.14
71649;SHT31;70112;45.624;11.760;2024-01-16T03:42:25;1.56;72.14
71649;SHT31;70112;45.624;11.760;2024-01-16T03:51:51;1.47;71.93
71649;SHT31;70112;45.624;11.760;2024-01-16T04:01:01;1.49;72.29
71649;SHT31;70112;45.624;11.760;2024-01-16T04:04:09;1.54;72.25
71649;SHT31;70112;45.624;11.760;2024-01-16T04:09:32;1.52;72.37
71649;SHT31;70112;45.624;11.760;2024-01-16T04:25:47;1.60;72.36
71649;SHT31;70112;45.624;11.760;2024-01-16T04:28:48;1.63;72.31
71649;SHT31;70112;45.624;11.760;2024-01-16T04:31:38;1.67;72.24
71649;SHT31;70112;45.624;11.760;2024-01-16T04:34:31;1.64;72.20
71649;SHT31;70112;45.624;11.760;2024-01-16T04:37:23;1.62;72.29
71649;SHT31;70112;45.624;11.760;2024-01-16T04:40:01;1.66;72.31
71649;SHT31;70112;45.624;11.760;2024-01-16T04:43:13;1.70;72.30
71649;SHT31;70112;45.624;11.760;2024-01-16T04:46:34;1.80;72.18
71649;SHT31;70112;45.624;11.760;2024-01-16T04:49:22;1.84;72.02
71649;SHT31;70112;45.624;11.760;2024-01-16T04:52:01;1.85;71.99
71649;SHT31;70112;45.624;11.760;2024-01-16T04:54:39;1.90;71.95
71649;SHT31;70112;45.624;11.760;2024-01-16T05:00:14;1.89;71.86
71649;SHT31;70112;45.624;11.760;2024-01-16T05:02:40;1.86;71.87
71649;SHT31;70112;45.624;11.760;2024-01-16T05:05:09;1.82;71.95
71649;SHT31;70112;45.624;11.760;2024-01-16T05:08:42;1.81;72.02
71649;SHT31;70112;45.624;11.760;2024-01-16T05:25:23;1.99;72.01
71649;SHT31;70112;45.624;11.760;2024-01-16T05:28:20;2.07;71.92
71649;SHT31;70112;45.624;11.760;2024-01-16T05:31:18;2.11;71.87
71649;SHT31;70112;45.624;11.760;2024-01-16T05:34:49;2.14;71.79
71649;SHT31;70112;45.624;11.760;2024-01-16T05:37:40;2.16;71.73
71649;SHT31;70112;45.624;11.760;2024-01-16T05:44:58;2.21;71.63
71649;SHT31;70112;45.624;11.760;2024-01-16T05:47:44;2.24;71.59
71649;SHT31;70112;45.624;11.760;2024-01-16T06:01:11;2.43;71.39
71649;SHT31;70112;45.624;11.760;2024-01-16T06:06:59;2.48;71.37
71649;SHT31;70112;45.624;11.760;2024-01-16T06:10:16;2.54;71.30
71649;SHT31;70112;45.624;11.760;2024-01-16T06:12:51;2.58;71.21
71649;SHT31;70112;45.624;11.760;2024-01-16T06:19:49;2.69;71.07
71649;SHT31;70112;45.624;11.760;2024-01-16T06:22:34;2.73;70.96
71649;SHT31;70112;45.624;11.760;2024-01-16T06:31:35;2.74;70.66
71649;SHT31;70112;45.624;11.760;2024-01-16T06:34:30;2.75;70.70
71649;SHT31;70112;45.624;11.760;2024-01-16T06:37:39;2.77;70.68
71649;SHT31;70112;45.624;11.760;2024-01-16T06:46:50;2.82;70.48
71649;SHT31;70112;45.624;11.760;2024-01-16T06:52:45;2.89;70.36
71649;SHT31;70112;45.624;11.760;2024-01-16T06:55:55;2.92;70.24
71649;SHT31;70112;45.624;11.760;2024-01-16T06:58:46;2.94;70.15
71649;SHT31;70112;45.624;11.760;2024-01-16T07:01:34;2.98;69.96
71649;SHT31;70112;45.624;11.760;2024-01-16T07:04:37;3.01;69.89
71649;SHT31;70112;45.624;11.760;2024-01-16T07:13:19;3.04;69.58
71649;SHT31;70112;45.624;11.760;2024-01-16T07:16:24;3.05;69.59
71649;SHT31;70112;45.624;11.760;2024-01-16T07:18:52;3.05;69.60
71649;SHT31;70112;45.624;11.760;2024-01-16T07:21:49;3.07;69.54
71649;SHT31;70112;45.624;11.760;2024-01-16T07:24:51;3.09;69.59
71649;SHT31;70112;45.624;11.760;2024-01-16T07:27:24;3.13;69.60
71649;SHT31;70112;45.624;11.760;2024-01-16T07:30:34;3.21;69.60
71649;SHT31;70112;45.624;11.760;2024-01-16T07:36:54;3.53;69.34
71649;SHT31;70112;45.624;11.760;2024-01-16T07:39:32;3.69;69.19
71649;SHT31;70112;45.624;11.760;2024-01-16T07:45:03;3.95;68.77
71649;SHT31;70112;45.624;11.760;2024-01-16T07:47:49;4.00;68.68
71649;SHT31;70112;45.624;11.760;2024-01-16T11:49:01;9.20;53.60
71649;SHT31;70112;45.624;11.760;2024-01-16T11:51:28;9.23;53.58
71649;SHT31;70112;45.624;11.760;2024-01-16T11:53:54;9.26;53.51
71649;SHT31;70112;45.624;11.760;2024-01-16T12:02:48;9.35;52.87
71649;SHT31;70112;45.624;11.760;2024-01-16T12:08:02;9.41;52.56
71649;SHT31;70112;45.624;11.760;2024-01-16T12:10:28;9.43;52.45
71649;SHT31;70112;45.624;11.760;2024-01-16T12:12:58;9.45;52.31
71649;SHT31;70112;45.624;11.760;2024-01-16T12:15:26;9.44;52.30
71649;SHT31;70112;45.624;11.760;2024-01-16T12:17:58;9.45;52.29
71649;SHT31;70112;45.624;11.760;2024-01-16T12:20:36;9.46;51.86
71649;SHT31;70112;45.624;11.760;2024-01-16T12:23:03;9.46;51.61
71649;SHT31;70112;45.624;11.760;2024-01-16T12:25:35;9.48;51.40
71649;SHT31;70112;45.624;11.760;2024-01-16T12:28:06;9.49;51.14
71649;SHT31;70112;45.624;11.760;2024-01-16T12:30:36;9.49;51.11
71649;SHT31;70112;45.624;11.760;2024-01-16T12:33:05;9.49;50.79
71649;SHT31;70112;45.624;11.760;2024-01-16T12:35:39;9.49;50.42
71649;SHT31;70112;45.624;11.760;2024-01-16T12:38:12;9.52;50.20
71649;SHT31;70112;45.624;11.760;2024-01-16T12:40:49;9.56;49.52
71649;SHT31;70112;45.624;11.760;2024-01-16T12:43:22;9.60;48.77
71649;SHT31;70112;45.624;11.760;2024-01-16T12:45:54;9.62;48.67
71649;SHT31;70112;45.624;11.760;2024-01-16T12:48:25;9.64;48.78
71649;SHT31;70112;45.624;11.760;2024-01-16T12:50:52;9.68;48.53
71649;SHT31;70112;45.624;11.760;2024-01-16T12:53:27;9.70;48.57
71649;SHT31;70112;45.624;11.760;2024-01-16T12:55:57;9.70;48.71
71649;SHT31;70112;45.624;11.760;2024-01-16T12:58:25;9.71;48.63
71649;SHT31;70112;45.624;11.760;2024-01-16T13:01:19;9.73;48.59
71649;SHT31;70112;45.624;11.760;2024-01-16T13:03:53;9.71;48.72
71649;SHT31;70112;45.624;11.760;2024-01-16T13:06:19;9.68;48.98
71649;SHT31;70112;45.624;11.760;2024-01-16T13:08:48;9.64;48.86
71649;SHT31;70112;45.624;11.760;2024-01-16T13:11:17;9.60;48.62
71649;SHT31;70112;45.624;11.760;2024-01-16T13:13:48;9.55;48.82
71649;SHT31;70112;45.624;11.760;2024-01-16T13:16:14;9.51;49.13
71649;SHT31;70112;45.624;11.760;2024-01-16T13:18:41;9.44;49.43
71649;SHT31;70112;45.624;11.760;2024-01-16T13:21:07;9.41;49.62
71649;SHT31;70112;45.624;11.760;2024-01-16T13:23:34;9.37;49.82
71649;SHT31;70112;45.624;11.760;2024-01-16T13:26:00;9.32;50.05
71649;SHT31;70112;45.624;11.760;2024-01-16T13:28:29;9.29;50.28
71649;SHT31;70112;45.624;11.760;2024-01-16T13:30:58;9.29;50.57
71649;SHT31;70112;45.624;11.760;2024-01-16T13:33:24;9.31;50.85
71649;SHT31;70112;45.624;11.760;2024-01-16T13:35:52;9.29;51.28
71649;SHT31;70112;45.624;11.760;2024-01-16T13:38:19;9.32;51.70
71649;SHT31;70112;45.624;11.760;2024-01-16T13:40:46;9.33;52.05
71649;SHT31;70112;45.624;11.760;2024-01-16T13:43:12;9.36;52.30
71649;SHT31;70112;45.624;11.760;2024-01-16T13:45:38;9.35;52.45
71649;SHT31;70112;45.624;11.760;2024-01-16T13:48:04;9.35;52.61
71649;SHT31;70112;45.624;11.760;2024-01-16T13:50:33;9.30;52.70
71649;SHT31;70112;45.624;11.760;2024-01-16T13:53:00;9.28;52.86
71649;SHT31;70112;45.624;11.760;2024-01-16T13:55:29;9.26;52.92
71649;SHT31;70112;45.624;11.760;2024-01-16T13:57:57;9.25;53.10
71649;SHT31;70112;45.624;11.760;2024-01-16T14:00:23;9.21;53.17
71649;SHT31;70112;45.624;11.760;2024-01-16T14:02:49;9.20;53.12
71649;SHT31;70112;45.624;11.760;2024-01-16T14:05:16;9.19;53.07
71649;SHT31;70112;45.624;11.760;2024-01-16T14:07:48;9.18;53.20
71649;SHT31;70112;45.624;11.760;2024-01-16T14:10:25;9.18;53.41
71649;SHT31;70112;45.624;11.760;2024-01-16T14:12:51;9.19;53.48
71649;SHT31;70112;45.624;11.760;2024-01-16T14:15:19;9.21;53.52
71649;SHT31;70112;45.624;11.760;2024-01-16T14:17:50;9.24;53.52
71649;SHT31;70112;45.624;11.760;2024-01-16T14:20:20;9.28;53.44
71649;SHT31;70112;45.624;11.760;2024-01-16T14:22:53;9.32;53.35
71649;SHT31;70112;45.624;11.760;2024-01-16T14:25:20;9.34;53.36
71649;SHT31;70112;45.624;11.760;2024-01-16T14:28:00;9.33;53.33
71649;SHT31;70112;45.624;11.760;2024-01-16T14:30:34;9.34;53.10
71649;SHT31;70112;45.624;11.760;2024-01-16T14:33:00;9.31;53.04
71649;SHT31;70112;45.624;11.760;2024-01-16T14:35:33;9.28;53.06
71649;SHT31;70112;45.624;11.760;2024-01-16T14:37:59;9.24;53.09
71649;SHT31;70112;45.624;11.760;2024-01-16T14:40:25;9.19;53.10
71649;SHT31;70112;45.624;11.760;2024-01-16T14:42:51;9.17;53.07
71649;SHT31;70112;45.624;11.760;2024-01-16T14:45:23;9.15;52.87
71649;SHT31;70112;45.624;11.760;2024-01-16T14:47:50;9.13;52.98
71649;SHT31;70112;45.624;11.760;2024-01-16T14:50:18;9.10;53.02
71649;SHT31;70112;45.624;11.760;2024-01-16T14:52:47;9.06;53.13
71649;SHT31;70112;45.624;11.760;2024-01-16T14:55:14;9.02;53.23
71649;SHT31;70112;45.624;11.760;2024-01-16T14:57:54;8.98;53.33
71649;SHT31;70112;45.624;11.760;2024-01-16T15:00:25;8.94;53.40
71649;SHT31;70112;45.624;11.760;2024-01-16T15:03:03;8.89;53.32
71649;SHT31;70112;45.624;11.760;2024-01-16T15:05:30;8.83;53.37
71649;SHT31;70112;45.624;11.760;2024-01-16T15:08:07;8.78;53.46
71649;SHT31;70112;45.624;11.760;2024-01-16T15:10:33;8.74;53.52
71649;SHT31;70112;45.624;11.760;2024-01-16T15:15:59;8.62;54.19
71649;SHT31;70112;45.624;11.760;2024-01-16T15:18:24;8.58;54.31
71649;SHT31;70112;45.624;11.760;2024-01-16T15:20:50;8.53;54.47
71649;SHT31;70112;45.624;11.760;2024-01-16T15:23:16;8.49;54.54
71649;SHT31;70112;45.624;11.760;2024-01-16T15:25:45;8.48;54.45
71649;SHT31;70112;45.624;11.760;2024-01-16T15:28:10;8.44;54.83
71649;SHT31;70112;45.624;11.760;2024-01-16T15:30:42;8.42;54.91
71649;SHT31;70112;45.624;11.760;2024-01-16T15:33:12;8.40;54.91
71649;SHT31;70112;45.624;11.760;2024-01-16T15:35:38;8.40;54.99
71649;SHT31;70112;45.624;11.760;2024-01-16T15:38:07;8.38;55.01
71649;SHT31;70112;45.624;11.760;2024-01-16T15:40:35;8.36;55.16
71649;SHT31;70112;45.624;11.760;2024-01-16T15:43:01;8.33;55.16
71649;SHT31;70112;45.624;11.760;2024-01-16T15:45:27;8.30;55.24
71649;SHT31;70112;45.624;11.760;2024-01-16T15:47:56;8.28;55.43
71649;SHT31;70112;45.624;11.760;2024-01-16T15:50:25;8.24;55.72
71649;SHT31;70112;45.624;11.760;2024-01-16T15:53:03;8.19;55.92
71649;SHT31;70112;45.624;11.760;2024-01-16T15:55:32;8.13;56.08
71649;SHT31;70112;45.624;11.760;2024-01-16T16:01:13;7.92;56.84
71649;SHT31;70112;45.624;11.760;2024-01-16T16:04:10;7.82;56.85
71649;SHT31;70112;45.624;11.760;2024-01-16T16:06:50;7.72;56.95
71649;SHT31;70112;45.624;11.760;2024-01-16T16:09:21;7.65;56.89
71649;SHT31;70112;45.624;11.760;2024-01-16T16:11:48;7.63;56.97
71649;SHT31;70112;45.624;11.760;2024-01-16T16:14:34;7.63;57.03
71649;SHT31;70112;45.624;11.760;2024-01-16T16:17:04;7.62;57.04
71649;SHT31;70112;45.624;11.760;2024-01-16T16:19:34;7.62;57.32
71649;SHT31;70112;45.624;11.760;2024-01-16T16:22:04;7.58;57.83
71649;SHT31;70112;45.624;11.760;2024-01-16T16:25:04;7.51;58.06
71649;SHT31;70112;45.624;11.760;2024-01-16T16:27:37;7.49;58.20
71649;SHT31;70112;45.624;11.760;2024-01-16T16:33:11;7.42;58.04
71649;SHT31;70112;45.624;11.760;2024-01-16T16:38:21;7.37;58.20
71649;SHT31;70112;45.624;11.760;2024-01-16T16:40:47;7.29;58.32
71649;SHT31;70112;45.624;11.760;2024-01-16T16:43:13;7.17;58.64
71649;SHT31;70112;45.624;11.760;2024-01-16T16:46:02;7.12;58.82
71649;SHT31;70112;45.624;11.760;2024-01-16T16:48:36;7.10;58.93
71649;SHT31;70112;45.624;11.760;2024-01-16T16:51:23;7.07;59.09
71649;SHT31;70112;45.624;11.760;2024-01-16T16:56:59;7.12;59.30
71649;SHT31;70112;45.624;11.760;2024-01-16T17:02:31;7.22;59.40
71649;SHT31;70112;45.624;11.760;2024-01-16T17:05:00;7.20;59.78
71649;SHT31;70112;45.624;11.760;2024-01-16T17:07:27;7.18;59.93
71649;SHT31;70112;45.624;11.760;2024-01-16T17:12:52;7.21;60.15
71649;SHT31;70112;45.624;11.760;2024-01-16T17:21:53;7.20;60.36
71649;SHT31;70112;45.624;11.760;2024-01-16T17:24:33;7.16;60.41
71649;SHT31;70112;45.624;11.760;2024-01-16T17:27:04;7.13;60.30
71649;SHT31;70112;45.624;11.760;2024-01-16T17:29:34;7.12;60.32
71649;SHT31;70112;45.624;11.760;2024-01-16T17:32:13;7.12;60.35
71649;SHT31;70112;45.624;11.760;2024-01-16T17:34:46;7.09;60.35
71649;SHT31;70112;45.624;11.760;2024-01-16T17:37:37;7.06;60.38
71649;SHT31;70112;45.624;11.760;2024-01-16T17:40:03;7.03;60.44
71649;SHT31;70112;45.624;11.760;2024-01-16T17:42:49;6.98;60.50
71649;SHT31;70112;45.624;11.760;2024-01-16T17:45:14;6.96;60.54
71649;SHT31;70112;45.624;11.760;2024-01-16T17:48:25;6.94;60.62
71649;SHT31;70112;45.624;11.760;2024-01-16T17:50:56;6.92;60.97
71649;SHT31;70112;45.624;11.760;2024-01-16T17:53:22;6.91;61.08
71649;SHT31;70112;45.624;11.760;2024-01-16T17:55:48;6.91;61.19
71649;SHT31;70112;45.624;11.760;2024-01-16T17:58:14;6.91;61.27
71649;SHT31;70112;45.624;11.760;2024-01-16T18:00:43;6.90;61.29
71649;SHT31;70112;45.624;11.760;2024-01-16T18:03:09;6.88;61.23
71649;SHT31;70112;45.624;11.760;2024-01-16T18:05:42;6.86;61.27
71649;SHT31;70112;45.624;11.760;2024-01-16T18:08:11;6.88;61.16
71649;SHT31;70112;45.624;11.760;2024-01-16T18:10:38;6.91;61.10
71649;SHT31;70112;45.624;11.760;2024-01-16T18:13:14;6.89;61.11
71649;SHT31;70112;45.624;11.760;2024-01-16T18:15:40;6.90;61.16
71649;SHT31;70112;45.624;11.760;2024-01-16T18:18:07;6.88;61.01
71649;SHT31;70112;45.624;11.760;2024-01-16T18:20:59;6.89;61.01
71649;SHT31;70112;45.624;11.760;2024-01-16T18:26:11;6.94;60.94
71649;SHT31;70112;45.624;11.760;2024-01-16T18:31:41;6.98;60.86
71649;SHT31;70112;45.624;11.760;2024-01-16T18:35:37;7.01;60.81
71649;SHT31;70112;45.624;11.760;2024-01-16T18:38:13;7.02;60.75
71649;SHT31;70112;45.624;11.760;2024-01-16T18:40:41;7.02;60.69
71649;SHT31;70112;45.624;11.760;2024-01-16T18:43:10;7.03;60.60
71649;SHT31;70112;45.624;11.760;2024-01-16T18:45:36;7.06;60.57
71649;SHT31;70112;45.624;11.760;2024-01-16T18:48:31;7.09;60.53
71649;SHT31;70112;45.624;11.760;2024-01-16T18:51:34;7.13;60.51
71649;SHT31;70112;45.624;11.760;2024-01-16T18:56:41;7.10;60.47
71649;SHT31;70112;45.624;11.760;2024-01-16T18:59:12;7.06;60.47
71649;SHT31;70112;45.624;11.760;2024-01-16T19:01:51;7.06;60.40
71649;SHT31;70112;45.624;11.760;2024-01-16T19:04:39;7.08;60.25
71649;SHT31;70112;45.624;11.760;2024-01-16T19:10:17;7.09;60.31
71649;SHT31;70112;45.624;11.760;2024-01-16T19:12:49;7.03;60.26
71649;SHT31;70112;45.624;11.760;2024-01-16T19:15:15;7.00;60.48
71649;SHT31;70112;45.624;11.760;2024-01-16T19:18:06;7.00;60.40
71649;SHT31;70112;45.624;11.760;2024-01-16T19:20:40;7.02;60.46
71649;SHT31;70112;45.624;11.760;2024-01-16T19:23:13;7.02;60.47
71649;SHT31;70112;45.624;11.760;2024-01-16T19:25:58;7.02;60.25
71649;SHT31;70112;45.624;11.760;2024-01-16T19:29:05;7.00;60.02
71649;SHT31;70112;45.624;11.760;2024-01-16T19:31:35;6.98;59.89
71649;SHT31;70112;45.624;11.760;2024-01-16T19:34:01;6.98;59.86
71649;SHT31;70112;45.624;11.760;2024-01-16T19:36:40;6.97;59.81
71649;SHT31;70112;45.624;11.760;2024-01-16T19:39:14;6.96;59.86
71649;SHT31;70112;45.624;11.760;2024-01-16T19:41:42;6.97;59.90
71649;SHT31;70112;45.624;11.760;2024-01-16T19:44:40;6.99;59.91
71649;SHT31;70112;45.624;11.760;2024-01-16T19:47:06;7.00;59.88
71649;SHT31;70112;45.624;11.760;2024-01-16T19:49:37;7.00;59.85
71649;SHT31;70112;45.624;11.760;2024-01-16T19:52:03;7.00;59.76
71649;SHT31;70112;45.624;11.760;2024-01-16T19:54:51;7.01;59.60
71649;SHT31;70112;45.624;11.760;2024-01-16T20:00:30;7.01;59.42
71649;SHT31;70112;45.624;11.760;2024-01-16T20:02:56;7.02;59.28
71649;SHT31;70112;45.624;11.760;2024-01-16T20:05:24;7.01;59.21
71649;SHT31;70112;45.624;11.760;2024-01-16T20:07:52;7.01;59.42
71649;SHT31;70112;45.624;11.760;2024-01-16T20:10:18;6.98;59.31
71649;SHT31;70112;45.624;11.760;2024-01-16T20:12:46;6.97;59.31
71649;SHT31;70112;45.624;11.760;2024-01-16T20:15:17;6.98;59.37
71649;SHT31;70112;45.624;11.760;2024-01-16T20:17:44;6.98;59.43
71649;SHT31;70112;45.624;11.760;2024-01-16T20:20:19;6.99;59.39
71649;SHT31;70112;45.624;11.760;2024-01-16T20:22:53;7.01;59.42
71649;SHT31;70112;45.624;11.760;2024-01-16T20:25:28;7.00;59.52
71649;SHT31;70112;45.624;11.760;2024-01-16T20:27:54;6.97;59.73
71649;SHT31;70112;45.624;11.760;2024-01-16T20:30:41;6.95;59.68
71649;SHT31;70112;45.624;11.760;2024-01-16T20:33:09;6.97;59.69
71649;SHT31;70112;45.624;11.760;2024-01-16T20:35:50;7.03;59.52
71649;SHT31;70112;45.624;11.760;2024-01-16T20:38:21;7.05;59.41
71649;SHT31;70112;45.624;11.760;2024-01-16T20:41:10;7.09;59.39
71649;SHT31;70112;45.624;11.760;2024-01-16T20:43:39;7.11;59.33
71649;SHT31;70112;45.624;11.760;2024-01-16T20:46:11;7.15;59.26
71649;SHT31;70112;45.624;11.760;2024-01-16T20:48:39;7.16;59.13
71649;SHT31;70112;45.624;11.760;2024-01-16T20:51:13;7.16;59.05
71649;SHT31;70112;45.624;11.760;2024-01-16T20:53:41;7.16;59.03
71649;SHT31;70112;45.624;11.760;2024-01-16T20:56:12;7.18;59.01
71649;SHT31;70112;45.624;11.760;2024-01-16T21:01:38;7.16;58.96
71649;SHT31;70112;45.624;11.760;2024-01-16T21:04:05;7.16;58.94
71649;SHT31;70112;45.624;11.760;2024-01-16T21:06:34;7.16;58.90
71649;SHT31;70112;45.624;11.760;2024-01-16T21:09:23;7.13;58.93
71649;SHT31;70112;45.624;11.760;2024-01-16T21:11:56;7.10;58.97
71649;SHT31;70112;45.624;11.760;2024-01-16T21:14:44;7.07;59.03
71649;SHT31;70112;45.624;11.760;2024-01-16T21:17:12;7.05;59.11
71649;SHT31;70112;45.624;11.760;2024-01-16T21:19:43;7.05;59.15
71649;SHT31;70112;45.624;11.760;2024-01-16T21:22:09;7.06;59.19
71649;SHT31;70112;45.624;11.760;2024-01-16T21:24:36;7.07;58.96
71649;SHT31;70112;45.624;11.760;2024-01-16T21:27:25;7.08;58.82
71649;SHT31;70112;45.624;11.760;2024-01-16T21:29:54;7.09;58.79
71649;SHT31;70112;45.624;11.760;2024-01-16T21:32:23;7.10;58.74
71649;SHT31;70112;45.624;11.760;2024-01-16T21:34:53;7.11;58.60
71649;SHT31;70112;45.624;11.760;2024-01-16T21:37:24;7.11;58.61
71649;SHT31;70112;45.624;11.760;2024-01-16T21:39:53;7.12;58.73
71649;SHT31;70112;45.624;11.760;2024-01-16T21:42:21;7.14;58.79
71649;SHT31;70112;45.624;11.760;2024-01-16T21:44:50;7.15;58.70
71649;SHT31;70112;45.624;11.760;2024-01-16T21:47:18;7.15;58.47
71649;SHT31;70112;45.624;11.760;2024-01-16T21:49:56;7.15;58.32
71649;SHT31;70112;45.624;11.760;2024-01-16T21:52:22;7.15;58.19
71649;SHT31;70112;45.624;11.760;2024-01-16T21:54:51;7.14;58.18
71649;SHT31;70112;45.624;11.760;2024-01-16T21:57:17;7.15;58.19
71649;SHT31;70112;45.624;11.760;2024-01-16T21:59:50;7.15;58.22
71649;SHT31;70112;45.624;11.760;2024-01-16T22:02:20;7.16;58.20
71649;SHT31;70112;45.624;11.760;2024-01-16T22:04:45;7.17;58.18
71649;SHT31;70112;45.624;11.760;2024-01-16T22:07:15;7.19;58.40
71649;SHT31;70112;45.624;11.760;2024-01-16T22:09:46;7.20;58.51
71649;SHT31;70112;45.624;11.760;2024-01-16T22:12:12;7.21;58.56
71649;SHT31;70112;45.624;11.760;2024-01-16T22:14:41;7.23;58.63
71649;SHT31;70112;45.624;11.760;2024-01-16T22:17:09;7.24;58.83
71649;SHT31;70112;45.624;11.760;2024-01-16T22:19:37;7.22;59.02
71649;SHT31;70112;45.624;11.760;2024-01-16T22:22:03;7.22;58.96
71649;SHT31;70112;45.624;11.760;2024-01-16T22:24:31;7.26;58.89
71649;SHT31;70112;45.624;11.760;2024-01-16T22:26:57;7.32;58.89
71649;SHT31;70112;45.624;11.760;2024-01-16T22:29:23;7.35;58.64
71649;SHT31;70112;45.624;11.760;2024-01-16T22:31:49;7.39;58.65
71649;SHT31;70112;45.624;11.760;2024-01-16T22:34:20;7.43;58.86
71649;SHT31;70112;45.624;11.760;2024-01-16T22:36:46;7.43;59.09
71649;SHT31;70112;45.624;11.760;2024-01-16T22:39:12;7.42;59.33
71649;SHT31;70112;45.624;11.760;2024-01-16T22:41:45;7.42;59.47
71649;SHT31;70112;45.624;11.760;2024-01-16T22:44:24;7.43;59.68
71649;SHT31;70112;45.624;11.760;2024-01-16T22:46:54;7.43;59.78
71649;SHT31;70112;45.624;11.760;2024-01-16T22:49:20;7.43;59.50
71649;SHT31;70112;45.624;11.760;2024-01-16T22:51:47;7.43;59.29
71649;SHT31;70112;45.624;11.760;2024-01-16T22:54:13;7.43;59.14
71649;SHT31;70112;45.624;11.760;2024-01-16T22:56:39;7.40;59.13
71649;SHT31;70112;45.624;11.760;2024-01-16T22:59:08;7.39;59.10
71649;SHT31;70112;45.624;11.760;2024-01-16T23:01:34;7.39;59.16
71649;SHT31;70112;45.624;11.760;2024-01-16T23:04:03;7.36;59.19
71649;SHT31;70112;45.624;11.760;2024-01-16T23:06:30;7.34;59.23
71649;SHT31;70112;45.624;11.760;2024-01-16T23:09:01;7.33;59.30
71649;SHT31;70112;45.624;11.760;2024-01-16T23:11:30;7.33;59.37
71649;SHT31;70112;45.624;11.760;2024-01-16T23:14:01;7.33;59.47
71649;SHT31;70112;45.624;11.760;2024-01-16T23:16:28;7.32;59.59
71649;SHT31;70112;45.624;11.760;2024-01-16T23:18:56;7.33;59.45
71649;SHT31;70112;45.624;11.760;2024-01-16T23:21:21;7.33;59.22
71649;SHT31;70112;45.624;11.760;2024-01-16T23:23:50;7.32;59.08
71649;SHT31;70112;45.624;11.760;2024-01-16T23:26:26;7.31;59.10
71649;SHT31;70112;45.624;11.760;2024-01-16T23:29:09;7.28;59.12
71649;SHT31;70112;45.624;11.760;2024-01-16T23:31:36;7.28;59.25
71649;SHT31;70112;45.624;11.760;2024-01-16T23:34:02;7.27;59.38
71649;SHT31;70112;45.624;11.760;2024-01-16T23:36:39;7.28;59.64
71649;SHT31;70112;45.624;11.760;2024-01-16T23:39:11;7.26;59.79
71649;SHT31;70112;45.624;11.760;2024-01-16T23:42:13;7.27;59.76
71649;SHT31;70112;45.624;11.760;2024-01-16T23:44:50;7.29;59.91
71649;SHT31;70112;45.624;11.760;2024-01-16T23:47:24;7.31;59.81
71649;SHT31;70112;45.624;11.760;2024-01-16T23:50:15;7.35;59.89
71649;SHT31;70112;45.624;11.760;2024-01-16T23:52:49;7.36;59.99
71649;SHT31;70112;45.624;11.760;2024-01-16T23:55:18;7.37;60.05
71649;SHT31;70112;45.624;11.760;2024-01-16T23:57:43;7.38;60.05
